EST,Max TemperatureF,Mean TemperatureF,Min TemperatureF,Max Dew PointF,MeanDew PointF,Min DewpointF,Max Humidity, Mean Humidity, Min Humidity, Max Sea Level PressureIn, Mean Sea Level PressureIn, Min Sea Level PressureIn, Max VisibilityMiles, Mean VisibilityMiles, Min VisibilityMiles, Max Wind SpeedMPH, Mean Wind SpeedMPH, Max Gust SpeedMPH,PrecipitationIn, CloudCover, Events, WindDirDegrees
2012-11-1,53,44,35,32,26,19,76,51,26,29.96,29.92,29.88,10,10,10,17,8,22,0.00,5,,260
2012-11-2,58,47,35,34,30,24,82,58,33,30.07,29.96,29.87,10,10,10,13,4,16,0.00,3,,290
2012-11-3,56,43,30,40,33,29,92,67,41,30.17,30.07,29.98,10,10,5,15,3,20,0.19,5,Rain-Thunderstorm,55
2012-11-4,51,42,33,40,36,31,93,75,56,30.14,30.09,30.03,10,10,10,10,4,14,0.00,6,,6
2012-11-5,53,40,27,36,31,25,96,70,44,30.16,30.10,30.04,10,9,5,9,2,12,0.00,1,,21
2012-11-6,51,43,35,40,34,28,82,67,52,30.03,29.98,29.91,10,10,5,12,3,15,0.00,7,,328
2012-11-7,46,42,37,40,39,36,93,82,71,30.09,29.95,29.88,10,8,2,9,3,12,0.07,7,Rain,322
2012-11-8,55,42,28,37,31,27,100,69,38,30.26,30.18,30.09,10,4,0,8,1,12,0.00,1,Fog,280
2012-11-9,61,44,27,36,32,25,92,64,35,30.32,30.25,30.19,10,8,5,8,1,12,0.00,0,,192
2012-11-10,71,53,35,38,34,32,89,57,25,30.34,30.26,30.21,10,10,8,12,2,16,0.00,0,,185
2012-11-11,69,53,36,46,37,32,85,56,26,30.34,30.25,30.17,10,10,10,23,6,30,0.00,0,,172
2012-11-12,65,48,30,55,42,30,100,80,60,30.44,30.25,30.08,10,6,0,23,8,35,0.55,6,Fog-Rain,269
2012-11-13,47,36,24,32,25,22,100,71,42,30.51,30.46,30.43,10,6,0,9,2,13,0.00,1,Fog,16
2012-11-14,48,38,28,28,26,23,78,62,45,30.47,30.40,30.31,10,10,10,12,5,16,0.00,0,,29
2012-11-15,54,39,24,30,27,23,92,65,38,30.36,30.31,30.27,10,10,10,8,2,10,0.00,0,,10
2012-11-16,55,42,28,31,28,25,92,64,35,30.43,30.37,30.32,10,10,10,12,3,15,0.00,0,,14
2012-11-17,61,45,29,31,27,24,85,55,25,30.50,30.43,30.40,10,10,10,12,4,14,0.00,0,,22
2012-11-18,63,46,28,30,25,20,92,56,20,30.45,30.40,30.35,10,10,10,9,1,14,0.00,0,,168
2012-11-19,62,45,28,39,31,26,92,62,31,30.36,30.30,30.20,10,10,10,9,1,21,0.00,0,,260
2012-11-20,64,51,37,42,37,34,85,61,36,30.19,30.13,30.07,10,10,10,8,1,10,0.00,4,,220
2012-11-21,65,52,38,41,38,35,89,63,36,30.22,30.17,30.10,10,10,10,10,2,14,0.00,1,,9
2012-11-22,66,49,31,39,35,30,96,64,32,30.26,30.19,30.12,10,10,6,10,2,13,0.00,0,,203
2012-11-23,55,46,37,47,38,27,93,70,46,30.16,30.08,30.04,10,8,2,20,8,24,0.02,4,Rain,261
2012-11-24,38,30,22,25,20,18,81,65,48,30.25,30.20,30.15,10,10,10,13,5,17,0.00,4,,309
2012-11-25,53,37,20,22,18,14,92,57,22,30.17,30.09,29.99,10,10,7,15,4,21,0.00,0,,206
2012-11-26,55,42,29,37,29,21,82,60,38,30.20,30.15,30.10,10,10,10,8,1,10,0.02,7,Rain,11
2012-11-27,42,38,34,40,36,30,100,91,82,30.34,30.24,30.13,10,6,2,12,6,15,0.06,8,Rain,4
2012-11-28,45,36,26,30,27,23,89,67,45,30.47,30.41,30.32,10,10,8,8,2,10,0.00,4,,282
2012-11-29,54,38,21,29,25,19,92,64,35,30.44,30.37,30.30,10,9,6,10,2,14,0.00,0,,197
2012-11-30,59,44,28,39,34,26,92,68,44,30.35,30.29,30.21,10,10,10,20,4,26,0.00,1,,205